createdAt,value
2023-03-12T00:01:43.578Z,-0.73
2023-03-12T00:04:22.630Z,-0.73
2023-03-12T00:07:07.635Z,-0.73
2023-03-12T00:09:46.848Z,-0.74
2023-03-12T00:12:25.984Z,-0.78
2023-03-12T00:15:05.410Z,-0.83
2023-03-12T00:17:44.696Z,-0.86
2023-03-12T00:20:24.621Z,-0.88
2023-03-12T00:23:08.837Z,-0.91
2023-03-12T00:25:49.703Z,-0.92
2023-03-12T00:28:28.769Z,-0.94
2023-03-12T00:31:08.736Z,-0.94
2023-03-12T00:33:47.835Z,-0.95
2023-03-12T00:36:29.280Z,-0.95
2023-03-12T00:39:13.782Z,-0.96
2023-03-12T00:41:52.897Z,-0.97
2023-03-12T00:44:32.025Z,-1.01
2023-03-12T00:47:11.524Z,-1.05
2023-03-12T00:49:50.598Z,-1.08
2023-03-12T00:52:29.663Z,-1.10
2023-03-12T00:55:14.593Z,-1.11
2023-03-12T00:57:53.710Z,-1.10
2023-03-12T01:00:32.874Z,-1.10
2023-03-12T01:03:11.981Z,-1.11
2023-03-12T01:05:55.001Z,-1.11
2023-03-12T01:08:34.214Z,-1.11
2023-03-12T01:11:20.388Z,-1.12
2023-03-12T01:13:59.424Z,-1.13
2023-03-12T01:16:38.906Z,-1.13
2023-03-12T01:19:18.142Z,-1.12
2023-03-12T01:21:57.217Z,-1.10
2023-03-12T01:24:36.268Z,-1.06
2023-03-12T01:27:21.416Z,-1.01
2023-03-12T01:30:00.536Z,-0.94
2023-03-12T01:32:39.892Z,-0.90
2023-03-12T01:35:19.174Z,-0.83
2023-03-12T01:37:58.665Z,-0.77
2023-03-12T01:40:41.181Z,-0.71
2023-03-12T01:43:37.578Z,-0.62
2023-03-12T01:46:47.992Z,-0.53
2023-03-12T01:49:32.862Z,-0.47
2023-03-12T01:52:17.880Z,-0.45
2023-03-12T01:55:04.661Z,-0.43
2023-03-12T01:57:50.285Z,-0.43
2023-03-12T02:00:35.605Z,-0.42
2023-03-12T02:03:17.213Z,-0.41
2023-03-12T02:06:02.363Z,-0.40
2023-03-12T02:08:46.674Z,-0.39
2023-03-12T02:11:25.939Z,-0.38
2023-03-12T02:14:05.291Z,-0.37
2023-03-12T02:16:50.643Z,-0.35
2023-03-12T02:19:41.081Z,-0.36
2023-03-12T02:22:23.148Z,-0.36
2023-03-12T02:25:10.359Z,-0.36
2023-03-12T02:27:55.421Z,-0.35
2023-03-12T02:30:37.334Z,-0.33
2023-03-12T02:33:17.910Z,-0.31
2023-03-12T02:35:58.798Z,-0.29
2023-03-12T02:38:45.961Z,-0.26
2023-03-12T02:41:29.090Z,-0.22
2023-03-12T02:44:18.966Z,-0.18
2023-03-12T02:47:01.126Z,-0.13
2023-03-12T02:49:41.975Z,-0.11
2023-03-12T02:52:21.089Z,-0.07
2023-03-12T02:55:00.163Z,-0.02
2023-03-12T02:57:39.268Z,-0.01
2023-03-12T03:00:24.934Z,0.02
2023-03-12T03:03:05.896Z,0.03
2023-03-12T03:05:44.977Z,0.03
2023-03-12T03:08:24.056Z,0.03
2023-03-12T03:11:04.130Z,0.04
2023-03-12T03:13:43.422Z,0.05
2023-03-12T03:16:28.232Z,0.06
2023-03-12T03:19:07.393Z,0.09
2023-03-12T03:21:46.618Z,0.10
2023-03-12T03:24:25.808Z,0.12
2023-03-12T03:27:04.935Z,0.15
2023-03-12T03:29:44.056Z,0.19
2023-03-12T03:32:28.346Z,0.21
2023-03-12T03:35:07.482Z,0.24
2023-03-12T03:37:46.925Z,0.28
2023-03-12T03:40:26.166Z,0.29
2023-03-12T03:43:05.296Z,0.28
2023-03-12T03:45:45.821Z,0.27
2023-03-12T03:48:29.958Z,0.27
2023-03-12T03:51:09.602Z,0.28
2023-03-12T03:53:48.674Z,0.29
2023-03-12T03:56:27.868Z,0.31
2023-03-12T03:59:07.673Z,0.33
2023-03-12T04:01:46.868Z,0.36
2023-03-12T04:04:32.450Z,0.38
2023-03-12T04:07:11.634Z,0.38
2023-03-12T04:09:52.496Z,0.38
2023-03-12T04:12:31.931Z,0.37
2023-03-12T04:15:12.065Z,0.33
2023-03-12T04:17:51.229Z,0.31
2023-03-12T04:20:35.490Z,0.28
2023-03-12T04:23:14.746Z,0.27
2023-03-12T04:25:53.883Z,0.27
2023-03-12T04:28:33.087Z,0.27
2023-03-12T04:31:15.171Z,0.28
2023-03-12T04:33:54.254Z,0.30
2023-03-12T04:36:38.427Z,0.33
2023-03-12T04:39:17.586Z,0.36
2023-03-12T04:41:56.949Z,0.37
2023-03-12T04:44:36.022Z,0.40
2023-03-12T04:47:15.143Z,0.43
2023-03-12T04:49:55.118Z,0.45
2023-03-12T04:52:39.503Z,0.48
2023-03-12T04:55:18.648Z,0.52
2023-03-12T04:57:57.743Z,0.54
2023-03-12T05:00:36.966Z,0.55
2023-03-12T05:03:16.316Z,0.52
2023-03-12T05:05:55.432Z,0.49
2023-03-12T05:08:39.577Z,0.47
2023-03-12T05:11:18.728Z,0.45
2023-03-12T05:13:58.001Z,0.44
2023-03-12T05:16:37.247Z,0.47
2023-03-12T05:19:16.435Z,0.51
2023-03-12T05:21:55.535Z,0.54
2023-03-12T05:24:39.695Z,0.56
2023-03-12T05:27:18.994Z,0.59
2023-03-12T05:29:58.077Z,0.62
2023-03-12T05:32:37.299Z,0.64
2023-03-12T05:35:17.050Z,0.67
2023-03-12T05:37:56.225Z,0.69
2023-03-12T05:40:40.362Z,0.72
2023-03-12T05:43:19.453Z,0.75
2023-03-12T05:45:58.936Z,0.77
2023-03-12T05:48:38.539Z,0.80
2023-03-12T05:51:17.706Z,0.83
2023-03-12T05:53:56.858Z,0.83
2023-03-12T05:56:43.419Z,0.80
2023-03-12T05:59:22.635Z,0.76
2023-03-12T06:02:01.786Z,0.74
2023-03-12T06:04:40.911Z,0.75
2023-03-12T06:07:20.038Z,0.78
2023-03-12T06:10:00.849Z,0.80
2023-03-12T06:12:45.465Z,0.84
2023-03-12T06:15:24.692Z,0.90
2023-03-12T06:18:03.888Z,0.94
2023-03-12T06:20:43.061Z,1.00
2023-03-12T06:23:22.464Z,1.06
2023-03-12T06:26:01.541Z,1.11
2023-03-12T06:28:46.165Z,1.15
2023-03-12T06:31:27.369Z,1.19
2023-03-12T06:34:06.583Z,1.22
2023-03-12T06:36:45.717Z,1.27
2023-03-12T06:39:25.018Z,1.31
2023-03-12T06:42:04.165Z,1.35
2023-03-12T06:44:48.450Z,1.38
2023-03-12T06:47:27.554Z,1.42
2023-03-12T06:52:51.036Z,1.51
2023-03-12T06:55:30.142Z,1.55
2023-03-12T06:58:09.307Z,1.62
2023-03-12T07:00:53.494Z,1.67
2023-03-12T07:03:32.855Z,1.70
2023-03-12T07:06:19.449Z,1.73
2023-03-12T07:08:59.448Z,1.78
2023-03-12T07:11:38.574Z,1.82
2023-03-12T07:14:17.995Z,1.87
2023-03-12T07:17:02.975Z,1.91
2023-03-12T07:19:42.070Z,1.95
2023-03-12T07:22:21.208Z,2.00
2023-03-12T07:25:00.332Z,2.05
2023-03-12T07:27:39.590Z,2.07
2023-03-12T07:30:19.875Z,2.08
2023-03-12T07:33:04.198Z,2.09
2023-03-12T07:35:44.880Z,2.11
2023-03-12T07:38:24.164Z,2.14
2023-03-12T07:41:05.110Z,2.14
2023-03-12T07:43:44.534Z,2.14
2023-03-12T07:46:23.847Z,2.16
2023-03-12T07:49:08.420Z,2.22
2023-03-12T07:51:47.782Z,2.32
2023-03-12T07:54:31.597Z,2.40
2023-03-12T07:57:11.229Z,2.46
2023-03-12T07:59:50.456Z,2.51
2023-03-12T08:02:29.624Z,2.54
2023-03-12T08:05:14.885Z,2.55
2023-03-12T08:07:54.080Z,2.53
2023-03-12T08:10:33.400Z,2.51
2023-03-12T08:13:12.639Z,2.50
2023-03-12T08:15:51.991Z,2.51
2023-03-12T08:18:31.899Z,2.54
2023-03-12T08:21:17.671Z,2.55
2023-03-12T08:23:56.921Z,2.57
2023-03-12T08:26:36.194Z,2.61
2023-03-12T08:29:15.354Z,2.67
2023-03-12T08:32:04.591Z,2.73
2023-03-12T08:34:44.763Z,2.80
2023-03-12T08:37:29.386Z,2.87
2023-03-12T08:40:10.068Z,2.94
2023-03-12T08:42:51.442Z,2.99
2023-03-12T08:45:30.685Z,3.02
2023-03-12T08:48:10.118Z,3.03
2023-03-12T08:50:49.231Z,3.05
2023-03-12T08:53:34.253Z,3.07
2023-03-12T08:56:14.262Z,3.07
2023-03-12T08:58:53.397Z,3.04
2023-03-12T09:01:32.588Z,3.00
2023-03-12T09:04:13.219Z,2.95
2023-03-12T09:06:52.425Z,2.93
2023-03-12T09:09:36.647Z,2.96
2023-03-12T09:12:16.377Z,3.01
2023-03-12T09:15:03.485Z,3.04
2023-03-12T09:17:43.166Z,3.05
2023-03-12T09:20:22.341Z,3.05
2023-03-12T09:23:01.466Z,3.05
2023-03-12T09:25:45.687Z,3.05
2023-03-12T09:28:25.151Z,3.05
2023-03-12T09:31:04.307Z,3.03
2023-03-12T09:33:43.496Z,3.00
2023-03-12T09:36:22.623Z,2.99
2023-03-12T09:39:03.036Z,3.02
2023-03-12T09:41:51.125Z,3.06
2023-03-12T09:44:39.758Z,3.11
2023-03-12T09:47:32.439Z,3.18
2023-03-12T09:50:23.941Z,3.24
2023-03-12T09:53:08.472Z,3.29
2023-03-12T09:55:51.924Z,3.31
2023-03-12T09:58:40.251Z,3.34
2023-03-12T10:01:40.349Z,3.38
2023-03-12T10:04:58.107Z,3.43
2023-03-12T10:07:45.911Z,3.47
2023-03-12T10:10:40.469Z,3.51
2023-03-12T10:13:45.289Z,3.53
2023-03-12T10:16:41.759Z,3.57
2023-03-12T10:19:35.951Z,3.62
2023-03-12T10:22:29.496Z,3.69
2023-03-12T10:25:23.531Z,3.76
2023-03-12T10:28:12.362Z,3.82
2023-03-12T10:31:05.160Z,3.86
2023-03-12T10:33:52.077Z,3.90
2023-03-12T10:36:36.680Z,3.97
2023-03-12T10:39:23.350Z,4.02
2023-03-12T10:42:04.290Z,4.06
2023-03-12T10:44:43.374Z,4.10
2023-03-12T10:47:47.928Z,4.15
2023-03-12T10:50:29.840Z,4.18
2023-03-12T10:53:29.738Z,4.19
2023-03-12T10:56:13.490Z,4.21
2023-03-12T10:58:55.073Z,4.27
2023-03-12T11:01:36.733Z,4.34
2023-03-12T11:04:27.512Z,4.39
2023-03-12T11:07:27.886Z,4.43
2023-03-12T11:10:26.335Z,4.46
2023-03-12T11:13:09.481Z,4.51
2023-03-12T11:15:52.054Z,4.56
2023-03-12T11:18:38.306Z,4.63
2023-03-12T11:21:26.733Z,4.70
2023-03-12T11:24:15.625Z,4.76
2023-03-12T11:26:58.494Z,4.83
2023-03-12T11:29:40.984Z,4.90
2023-03-12T11:32:27.453Z,4.95
2023-03-12T11:35:07.411Z,5.02
2023-03-12T11:38:09.952Z,5.09
2023-03-12T11:41:13.901Z,5.15
2023-03-12T11:44:11.194Z,5.23
2023-03-12T11:47:03.917Z,5.30
2023-03-12T11:50:01.481Z,5.36
2023-03-12T11:52:55.380Z,5.36
2023-03-12T11:56:04.139Z,5.37
2023-03-12T11:58:58.400Z,5.44
2023-03-12T12:01:55.396Z,5.56
2023-03-12T12:05:07.230Z,5.67
2023-03-12T12:08:00.827Z,5.79
2023-03-12T12:11:00.447Z,5.95
2023-03-12T12:13:48.513Z,6.06
2023-03-12T12:16:46.064Z,6.16
2023-03-12T12:19:47.060Z,6.33
2023-03-12T12:22:50.634Z,6.52
2023-03-12T12:25:37.241Z,6.60
2023-03-12T12:28:35.161Z,6.65
2023-03-12T12:31:33.648Z,6.70
2023-03-12T12:34:31.674Z,6.72
2023-03-12T12:37:26.829Z,6.69
2023-03-12T12:40:18.275Z,6.65
2023-03-12T12:43:07.325Z,6.60
2023-03-12T12:45:55.877Z,6.55
2023-03-12T12:48:42.674Z,6.51
2023-03-12T12:51:26.268Z,6.48
2023-03-12T12:54:17.289Z,6.48
2023-03-12T12:57:03.422Z,6.48
2023-03-12T12:59:51.611Z,6.51
2023-03-12T13:02:39.816Z,6.56
2023-03-12T13:05:28.082Z,6.62
2023-03-12T13:08:07.199Z,6.71
2023-03-12T13:10:57.976Z,6.80
2023-03-12T13:13:41.901Z,6.87
2023-03-12T13:16:41.120Z,6.92
2023-03-12T13:19:35.241Z,6.97
2023-03-12T13:22:26.029Z,7.03
2023-03-12T13:25:22.727Z,7.11
2023-03-12T13:28:07.271Z,7.20
2023-03-12T13:30:54.158Z,7.24
2023-03-12T13:33:49.923Z,7.28
2023-03-12T13:36:35.682Z,7.28
2023-03-12T13:39:35.347Z,7.29
2023-03-12T13:42:33.941Z,7.30
2023-03-12T13:45:34.613Z,7.30
2023-03-12T13:48:24.358Z,7.32
2023-03-12T13:51:09.625Z,7.35
2023-03-12T13:53:57.841Z,7.38
2023-03-12T13:56:40.646Z,7.41
2023-03-12T13:59:24.906Z,7.44
2023-03-12T14:02:12.139Z,7.46
2023-03-12T14:04:51.878Z,7.49
2023-03-12T14:08:13.355Z,7.54
2023-03-12T14:11:14.534Z,7.58
2023-03-12T14:14:13.389Z,7.66
2023-03-12T14:16:56.188Z,7.72
2023-03-12T14:19:38.644Z,7.80
2023-03-12T14:22:23.705Z,7.89
2023-03-12T14:25:08.270Z,7.94
2023-03-12T14:27:53.955Z,7.98
2023-03-12T14:30:48.223Z,8.06
2023-03-12T14:33:29.219Z,8.13
2023-03-12T14:36:14.852Z,8.22
2023-03-12T14:38:56.147Z,8.29
2023-03-12T14:41:41.206Z,8.33
2023-03-12T14:44:32.266Z,8.39
2023-03-12T14:47:16.735Z,8.47
2023-03-12T14:49:55.825Z,8.57
2023-03-12T14:52:36.867Z,8.65
2023-03-12T14:55:22.686Z,8.69
2023-03-12T14:58:12.440Z,8.71
2023-03-12T15:01:04.168Z,8.73
2023-03-12T15:03:50.405Z,8.75
2023-03-12T15:06:37.236Z,8.79
2023-03-12T15:09:26.901Z,8.80
2023-03-12T15:12:08.704Z,8.80
2023-03-12T15:14:49.901Z,8.79
2023-03-12T15:17:38.420Z,8.80
2023-03-12T15:20:23.715Z,8.82
2023-03-12T15:23:04.676Z,8.81
2023-03-12T15:25:44.034Z,8.82
2023-03-12T15:28:35.441Z,8.83
2023-03-12T15:31:18.331Z,8.85
2023-03-12T15:34:13.383Z,8.86
2023-03-12T15:36:55.879Z,8.89
2023-03-12T15:39:38.342Z,8.90
2023-03-12T15:42:25.029Z,8.92
2023-03-12T15:45:10.233Z,8.94
2023-03-12T15:47:49.701Z,8.96
2023-03-12T15:50:39.196Z,9.00
2023-03-12T15:53:34.814Z,9.00
2023-03-12T15:56:29.112Z,9.00
2023-03-12T15:59:12.832Z,9.00
2023-03-12T16:01:53.905Z,9.00
2023-03-12T16:04:37.034Z,9.00
2023-03-12T16:07:21.862Z,9.02
2023-03-12T16:10:01.097Z,9.02
2023-03-12T16:12:40.992Z,9.02
2023-03-12T16:15:22.321Z,9.02
2023-03-12T16:18:01.444Z,9.03
2023-03-12T16:20:40.574Z,9.05
2023-03-12T16:23:26.101Z,9.06
2023-03-12T16:26:06.752Z,9.09
2023-03-12T16:28:46.630Z,9.11
2023-03-12T16:31:25.910Z,9.11
2023-03-12T16:34:05.112Z,9.12
2023-03-12T16:36:44.462Z,9.14
2023-03-12T16:39:31.295Z,9.15
2023-03-12T16:42:14.368Z,9.16
2023-03-12T16:44:54.391Z,9.15
2023-03-12T16:47:34.047Z,9.15
2023-03-12T16:50:21.614Z,9.15
2023-03-12T16:53:00.957Z,9.14
2023-03-12T16:55:52.742Z,9.14
2023-03-12T16:58:34.071Z,9.14
2023-03-12T17:01:13.236Z,9.16
2023-03-12T17:03:55.689Z,9.19
2023-03-12T17:06:35.580Z,9.18
2023-03-12T17:09:14.752Z,9.17
2023-03-12T17:11:59.888Z,9.17
2023-03-12T17:14:39.356Z,9.18
2023-03-12T17:17:18.651Z,9.18
2023-03-12T17:20:00.942Z,9.19
2023-03-12T17:22:40.554Z,9.19
2023-03-12T17:25:29.343Z,9.17
2023-03-12T17:28:14.648Z,9.15
2023-03-12T17:30:53.802Z,9.14
2023-03-12T17:33:33.009Z,9.11
2023-03-12T17:36:15.474Z,9.09
2023-03-12T17:38:54.795Z,9.10
2023-03-12T17:41:33.982Z,9.11
2023-03-12T17:44:18.302Z,9.11
2023-03-12T17:46:59.780Z,9.10
2023-03-12T17:49:40.535Z,9.10
2023-03-12T17:52:19.722Z,9.13
2023-03-12T17:57:45.603Z,9.42
2023-03-12T18:00:30.366Z,9.56
2023-03-12T18:03:09.693Z,9.71
2023-03-12T18:05:50.543Z,9.83
2023-03-12T18:08:29.933Z,9.92
2023-03-12T18:11:10.551Z,10.04
2023-03-12T18:13:49.649Z,10.15
2023-03-12T18:16:34.087Z,10.22
2023-03-12T18:19:13.219Z,10.29
2023-03-12T18:21:52.489Z,10.36
2023-03-12T18:24:31.675Z,10.43
2023-03-12T18:27:10.798Z,10.50
2023-03-12T18:29:49.898Z,10.56
2023-03-12T18:32:35.352Z,10.62
2023-03-12T18:35:16.039Z,10.69
2023-03-12T18:37:55.182Z,10.75
2023-03-12T18:40:34.236Z,10.81
2023-03-12T18:43:14.499Z,10.87
2023-03-12T18:45:53.638Z,10.92
2023-03-12T18:48:37.977Z,10.96
2023-03-12T18:51:17.079Z,10.98
2023-03-12T18:53:59.621Z,11.00
2023-03-12T18:56:40.308Z,11.04
2023-03-12T18:59:21.698Z,11.07
2023-03-12T19:02:07.279Z,11.09
2023-03-12T19:04:54.207Z,11.09
2023-03-12T19:07:37.122Z,11.10
2023-03-12T19:10:19.531Z,11.11
2023-03-12T19:12:59.146Z,11.12
2023-03-12T19:15:38.283Z,11.13
2023-03-12T19:18:17.360Z,11.14
2023-03-12T19:21:01.748Z,11.14
2023-03-12T19:23:41.813Z,11.15
2023-03-12T19:26:21.548Z,11.16
2023-03-12T19:29:00.697Z,11.19
2023-03-12T19:31:40.271Z,11.25
2023-03-12T19:34:20.174Z,11.29
2023-03-12T19:37:04.393Z,11.31
2023-03-12T19:39:43.491Z,11.31
2023-03-12T19:42:22.584Z,11.30
2023-03-12T19:45:01.735Z,11.30
2023-03-12T19:47:40.815Z,11.28
2023-03-12T19:50:21.038Z,11.27
2023-03-12T19:53:05.257Z,11.26
2023-03-12T19:55:44.377Z,11.22
2023-03-12T19:58:24.740Z,11.20
2023-03-12T20:01:06.473Z,11.20
2023-03-12T20:03:46.279Z,11.20
2023-03-12T20:06:25.495Z,11.20
2023-03-12T20:09:09.932Z,11.22
2023-03-12T20:11:49.028Z,11.24
2023-03-12T20:14:28.139Z,11.25
2023-03-12T20:17:07.834Z,11.26
2023-03-12T20:19:46.957Z,11.29
2023-03-12T20:22:27.157Z,11.32
2023-03-12T20:25:13.152Z,11.34
2023-03-12T20:27:52.502Z,11.36
2023-03-12T20:30:31.619Z,11.39
2023-03-12T20:33:11.966Z,11.39
2023-03-12T20:35:51.455Z,11.40
2023-03-12T20:38:30.621Z,11.39
2023-03-12T20:41:20.054Z,11.39
2023-03-12T20:44:03.183Z,11.37
2023-03-12T20:46:42.299Z,11.35
2023-03-12T20:49:21.544Z,11.34
2023-03-12T20:52:01.054Z,11.33
2023-03-12T20:54:40.382Z,11.33
2023-03-12T20:57:24.736Z,11.31
2023-03-12T21:00:03.893Z,11.26
2023-03-12T21:02:43.093Z,11.22
2023-03-12T21:05:24.939Z,11.18
2023-03-12T21:08:04.164Z,11.14
2023-03-12T21:10:44.196Z,11.09
2023-03-12T21:13:31.955Z,11.04
2023-03-12T21:16:13.363Z,10.96
2023-03-12T21:18:52.752Z,10.90
2023-03-12T21:21:32.020Z,10.84
2023-03-12T21:24:12.190Z,10.79
2023-03-12T21:26:52.007Z,10.74
2023-03-12T21:29:36.184Z,10.68
2023-03-12T21:32:15.421Z,10.60
2023-03-12T21:34:54.854Z,10.55
2023-03-12T21:37:34.320Z,10.49
2023-03-12T21:40:14.967Z,10.44
2023-03-12T21:42:54.148Z,10.40
2023-03-12T21:45:39.172Z,10.38
2023-03-12T21:48:18.248Z,10.36
2023-03-12T21:50:57.378Z,10.33
2023-03-12T21:53:36.579Z,10.29
2023-03-12T21:56:16.752Z,10.28
2023-03-12T21:58:56.053Z,10.27
2023-03-12T22:01:40.605Z,10.26
2023-03-12T22:04:19.795Z,10.26
2023-03-12T22:06:59.370Z,10.25
2023-03-12T22:09:38.713Z,10.22
2023-03-12T22:12:17.785Z,10.17
2023-03-12T22:14:56.971Z,10.13
2023-03-12T22:17:41.156Z,10.09
2023-03-12T22:20:20.911Z,10.06
2023-03-12T22:23:00.032Z,10.02
2023-03-12T22:25:41.714Z,9.99
2023-03-12T22:28:21.302Z,9.96
2023-03-12T22:33:54.981Z,9.92
2023-03-12T22:36:34.570Z,9.88
2023-03-12T22:39:13.797Z,9.84
2023-03-12T22:41:56.687Z,9.78
2023-03-12T22:44:35.805Z,9.69
2023-03-12T22:47:15.707Z,9.64
2023-03-12T22:49:59.982Z,9.60
2023-03-12T22:52:39.014Z,9.58
2023-03-12T22:55:18.280Z,9.56
2023-03-12T22:57:57.367Z,9.54
2023-03-12T23:00:36.476Z,9.54
2023-03-12T23:03:15.558Z,9.54
2023-03-12T23:06:01.281Z,9.54
2023-03-12T23:08:40.439Z,9.55
2023-03-12T23:11:21.754Z,9.55
2023-03-12T23:14:01.657Z,9.53
2023-03-12T23:16:40.940Z,9.48
2023-03-12T23:19:20.051Z,9.42
2023-03-12T23:22:04.239Z,9.37
2023-03-12T23:24:43.355Z,9.29
2023-03-12T23:27:22.622Z,9.19
2023-03-12T23:30:01.679Z,9.12
2023-03-12T23:32:41.924Z,9.09
2023-03-12T23:35:21.093Z,9.05
2023-03-12T23:38:07.216Z,9.02
2023-03-12T23:40:47.487Z,8.96
2023-03-12T23:43:27.294Z,8.90
2023-03-12T23:46:09.963Z,8.86
2023-03-12T23:48:49.028Z,8.83
2023-03-12T23:51:30.871Z,8.82
2023-03-12T23:54:15.030Z,8.79
2023-03-12T23:56:54.132Z,8.72
2023-03-12T23:59:33.241Z,8.67
